Terminal Aerodrome Forecast
Issued by NWS

Home | Current Version | Previous Version | Text Only | Print | Product List | Glossary On
Versions: 1 2 3 4 5 6 7 8 9 10 11 12 13 14 15 16 17
696
FTUS44 KBMX 302051 AAA
TAFTCL
TAF AMD
KTCL 302051Z 3021/3118 19010G20KT P6SM FEW080 SCT100
      TEMPO 3021/3022 19020G26KT -RA FEW080 OVC100
     FM310500 23002KT P6SM SHRA BKN030
     FM311200 25003KT P6SM SCT050=

USA.gov is the U.S. government's official web portal to all federal, state and local government web resources and services.